sensor_id;sensor_type;location;lat;lon;timestamp;temperature;humidity
67557;DHT22;54387;53.526;49.300;2023-11-19T00:00:27;-3.10;60.50
67557;DHT22;54387;53.526;49.300;2023-11-19T00:02:54;-3.10;60.60
67557;DHT22;54387;53.526;49.300;2023-11-19T00:05:20;-3.20;60.60
67557;DHT22;54387;53.526;49.300;2023-11-19T00:07:47;-3.20;60.70
67557;DHT22;54387;53.526;49.300;2023-11-19T00:10:15;-3.30;60.60
67557;DHT22;54387;53.526;49.300;2023-11-19T00:12:46;-3.40;60.60
67557;DHT22;54387;53.526;49.300;2023-11-19T00:15:14;-3.40;60.70
67557;DHT22;54387;53.526;49.300;2023-11-19T00:17:42;-3.50;60.60
67557;DHT22;54387;53.526;49.300;2023-11-19T00:20:16;-3.50;60.60
67557;DHT22;54387;53.526;49.300;2023-11-19T00:22:43;-3.60;60.60
67557;DHT22;54387;53.526;49.300;2023-11-19T00:25:10;-3.70;60.60
67557;DHT22;54387;53.526;49.300;2023-11-19T00:27:36;-3.70;60.70
67557;DHT22;54387;53.526;49.300;2023-11-19T00:30:06;-3.80;60.70
67557;DHT22;54387;53.526;49.300;2023-11-19T00:32:34;-3.80;60.90
67557;DHT22;54387;53.526;49.300;2023-11-19T00:35:01;-3.80;60.90
67557;DHT22;54387;53.526;49.300;2023-11-19T00:37:27;-3.90;60.90
67557;DHT22;54387;53.526;49.300;2023-11-19T00:39:54;-3.90;60.90
67557;DHT22;54387;53.526;49.300;2023-11-19T00:42:22;-4.00;60.90
67557;DHT22;54387;53.526;49.300;2023-11-19T00:44:53;-4.00;61.00
67557;DHT22;54387;53.526;49.300;2023-11-19T00:47:21;-4.10;61.10
67557;DHT22;54387;53.526;49.300;2023-11-19T00:49:48;-4.10;61.10
67557;DHT22;54387;53.526;49.300;2023-11-19T00:52:17;-4.10;61.20
67557;DHT22;54387;53.526;49.300;2023-11-19T00:54:44;-4.20;61.20
67557;DHT22;54387;53.526;49.300;2023-11-19T00:57:11;-4.20;61.20
67557;DHT22;54387;53.526;49.300;2023-11-19T00:59:37;-4.20;61.30
67557;DHT22;54387;53.526;49.300;2023-11-19T01:02:04;-4.20;61.30
67557;DHT22;54387;53.526;49.300;2023-11-19T01:04:35;-4.30;61.30
67557;DHT22;54387;53.526;49.300;2023-11-19T01:07:03;-4.30;61.50
67557;DHT22;54387;53.526;49.300;2023-11-19T01:09:30;-4.30;61.50
67557;DHT22;54387;53.526;49.300;2023-11-19T01:11:58;-4.30;61.60
67557;DHT22;54387;53.526;49.300;2023-11-19T01:14:27;-4.40;61.60
67557;DHT22;54387;53.526;49.300;2023-11-19T01:16:53;-4.40;61.60
67557;DHT22;54387;53.526;49.300;2023-11-19T01:19:22;-4.40;61.70
67557;DHT22;54387;53.526;49.300;2023-11-19T01:21:50;-4.40;61.80
67557;DHT22;54387;53.526;49.300;2023-11-19T01:24:16;-4.40;61.80
67557;DHT22;54387;53.526;49.300;2023-11-19T01:26:43;-4.40;61.90
67557;DHT22;54387;53.526;49.300;2023-11-19T01:29:14;-4.30;62.10
67557;DHT22;54387;53.526;49.300;2023-11-19T01:31:42;-4.20;62.20
67557;DHT22;54387;53.526;49.300;2023-11-19T01:34:08;-4.10;62.20
67557;DHT22;54387;53.526;49.300;2023-11-19T01:36:35;-4.10;62.20
67557;DHT22;54387;53.526;49.300;2023-11-19T01:39:01;-4.00;62.30
67557;DHT22;54387;53.526;49.300;2023-11-19T01:41:27;-3.80;62.30
67557;DHT22;54387;53.526;49.300;2023-11-19T01:43:53;-3.70;62.20
67557;DHT22;54387;53.526;49.300;2023-11-19T01:46:20;-3.60;62.20
67557;DHT22;54387;53.526;49.300;2023-11-19T01:48:47;-3.50;62.10
67557;DHT22;54387;53.526;49.300;2023-11-19T01:51:13;-3.60;62.10
67557;DHT22;54387;53.526;49.300;2023-11-19T01:53:43;-3.60;62.00
67557;DHT22;54387;53.526;49.300;2023-11-19T01:56:13;-3.70;62.00
67557;DHT22;54387;53.526;49.300;2023-11-19T01:58:41;-3.80;62.10
67557;DHT22;54387;53.526;49.300;2023-11-19T02:01:09;-3.80;62.20
67557;DHT22;54387;53.526;49.300;2023-11-19T02:03:37;-3.90;62.30
67557;DHT22;54387;53.526;49.300;2023-11-19T02:06:04;-3.90;62.40
67557;DHT22;54387;53.526;49.300;2023-11-19T02:08:31;-4.00;62.50
67557;DHT22;54387;53.526;49.300;2023-11-19T02:10:58;-4.00;62.50
67557;DHT22;54387;53.526;49.300;2023-11-19T02:13:27;-4.00;62.60
67557;DHT22;54387;53.526;49.300;2023-11-19T02:15:54;-4.00;62.60
67557;DHT22;54387;53.526;49.300;2023-11-19T02:18:25;-4.00;62.70
67557;DHT22;54387;53.526;49.300;2023-11-19T02:20:57;-4.00;62.80
67557;DHT22;54387;53.526;49.300;2023-11-19T02:23:26;-4.10;62.80
67557;DHT22;54387;53.526;49.300;2023-11-19T02:26:05;-4.10;62.90
67557;DHT22;54387;53.526;49.300;2023-11-19T02:28:36;-4.10;63.00
67557;DHT22;54387;53.526;49.300;2023-11-19T02:31:03;-4.10;62.90
67557;DHT22;54387;53.526;49.300;2023-11-19T02:33:31;-4.10;62.90
67557;DHT22;54387;53.526;49.300;2023-11-19T02:35:57;-4.10;62.90
67557;DHT22;54387;53.526;49.300;2023-11-19T02:38:24;-4.20;62.80
67557;DHT22;54387;53.526;49.300;2023-11-19T02:40:50;-4.20;63.40
67557;DHT22;54387;53.526;49.300;2023-11-19T02:43:17;-4.20;62.80
67557;DHT22;54387;53.526;49.300;2023-11-19T02:45:44;-4.20;62.90
67557;DHT22;54387;53.526;49.300;2023-11-19T02:48:11;-4.20;62.90
67557;DHT22;54387;53.526;49.300;2023-11-19T02:50:38;-4.20;62.90
67557;DHT22;54387;53.526;49.300;2023-11-19T02:53:04;-4.30;62.80
67557;DHT22;54387;53.526;49.300;2023-11-19T02:55:30;-4.30;62.80
67557;DHT22;54387;53.526;49.300;2023-11-19T02:58:02;-4.30;62.90
67557;DHT22;54387;53.526;49.300;2023-11-19T03:00:33;-4.30;62.90
67557;DHT22;54387;53.526;49.300;2023-11-19T03:03:03;-4.30;62.90
67557;DHT22;54387;53.526;49.300;2023-11-19T03:05:59;-4.30;62.90
67557;DHT22;54387;53.526;49.300;2023-11-19T03:08:25;-4.30;63.00
67557;DHT22;54387;53.526;49.300;2023-11-19T03:10:51;-4.30;63.00
67557;DHT22;54387;53.526;49.300;2023-11-19T03:13:17;-4.30;63.00
67557;DHT22;54387;53.526;49.300;2023-11-19T03:15:44;-4.30;63.00
67557;DHT22;54387;53.526;49.300;2023-11-19T03:18:10;-4.30;63.00
67557;DHT22;54387;53.526;49.300;2023-11-19T03:20:36;-4.30;62.90
67557;DHT22;54387;53.526;49.300;2023-11-19T03:23:03;-4.30;62.90
67557;DHT22;54387;53.526;49.300;2023-11-19T03:25:29;-4.30;62.90
67557;DHT22;54387;53.526;49.300;2023-11-19T03:28:00;-4.30;63.00
67557;DHT22;54387;53.526;49.300;2023-11-19T03:30:32;-4.40;63.00
67557;DHT22;54387;53.526;49.300;2023-11-19T03:32:58;-4.40;63.00
67557;DHT22;54387;53.526;49.300;2023-11-19T03:35:26;-4.40;63.00
67557;DHT22;54387;53.526;49.300;2023-11-19T03:37:53;-4.40;63.10
67557;DHT22;54387;53.526;49.300;2023-11-19T03:40:20;-4.40;63.10
67557;DHT22;54387;53.526;49.300;2023-11-19T03:42:48;-4.40;63.10
67557;DHT22;54387;53.526;49.300;2023-11-19T03:45:14;-4.40;63.10
67557;DHT22;54387;53.526;49.300;2023-11-19T03:47:42;-4.40;63.10
67557;DHT22;54387;53.526;49.300;2023-11-19T03:50:08;-4.40;63.10
67557;DHT22;54387;53.526;49.300;2023-11-19T03:52:35;-4.40;63.10
67557;DHT22;54387;53.526;49.300;2023-11-19T03:55:02;-4.40;63.20
67557;DHT22;54387;53.526;49.300;2023-11-19T03:57:30;-4.40;63.10
67557;DHT22;54387;53.526;49.300;2023-11-19T03:59:57;-4.40;63.10
67557;DHT22;54387;53.526;49.300;2023-11-19T04:02:24;-4.30;63.20
67557;DHT22;54387;53.526;49.300;2023-11-19T04:04:54;-4.30;63.30
67557;DHT22;54387;53.526;49.300;2023-11-19T04:07:21;-4.30;63.30
67557;DHT22;54387;53.526;49.300;2023-11-19T04:09:47;-4.20;63.40
67557;DHT22;54387;53.526;49.300;2023-11-19T04:12:13;-4.10;63.60
67557;DHT22;54387;53.526;49.300;2023-11-19T04:14:39;-4.00;63.60
67557;DHT22;54387;53.526;49.300;2023-11-19T04:17:06;-3.90;63.60
67557;DHT22;54387;53.526;49.300;2023-11-19T04:19:32;-3.90;63.60
67557;DHT22;54387;53.526;49.300;2023-11-19T04:21:59;-3.80;63.60
67557;DHT22;54387;53.526;49.300;2023-11-19T04:24:25;-3.90;63.60
67557;DHT22;54387;53.526;49.300;2023-11-19T04:26:51;-3.90;63.70
67557;DHT22;54387;53.526;49.300;2023-11-19T04:29:18;-3.90;63.80
67557;DHT22;54387;53.526;49.300;2023-11-19T04:31:45;-4.00;63.80
67557;DHT22;54387;53.526;49.300;2023-11-19T04:34:12;-4.00;63.90
67557;DHT22;54387;53.526;49.300;2023-11-19T04:36:38;-4.10;63.90
67557;DHT22;54387;53.526;49.300;2023-11-19T04:39:05;-4.10;64.00
67557;DHT22;54387;53.526;49.300;2023-11-19T04:41:51;-4.10;64.00
67557;DHT22;54387;53.526;49.300;2023-11-19T04:44:19;-4.20;64.00
67557;DHT22;54387;53.526;49.300;2023-11-19T04:46:45;-4.20;64.00
67557;DHT22;54387;53.526;49.300;2023-11-19T04:49:13;-4.20;64.10
67557;DHT22;54387;53.526;49.300;2023-11-19T04:51:44;-4.30;64.20
67557;DHT22;54387;53.526;49.300;2023-11-19T04:54:13;-4.30;64.70
67557;DHT22;54387;53.526;49.300;2023-11-19T04:56:40;-4.30;64.20
67557;DHT22;54387;53.526;49.300;2023-11-19T04:59:06;-4.30;64.20
67557;DHT22;54387;53.526;49.300;2023-11-19T05:01:35;-4.30;64.20
67557;DHT22;54387;53.526;49.300;2023-11-19T05:04:02;-4.30;64.20
67557;DHT22;54387;53.526;49.300;2023-11-19T05:06:30;-4.30;64.20
67557;DHT22;54387;53.526;49.300;2023-11-19T05:09:00;-4.30;64.20
67557;DHT22;54387;53.526;49.300;2023-11-19T05:11:27;-4.30;64.30
67557;DHT22;54387;53.526;49.300;2023-11-19T05:13:54;-4.30;64.30
67557;DHT22;54387;53.526;49.300;2023-11-19T05:16:21;-4.30;64.30
67557;DHT22;54387;53.526;49.300;2023-11-19T05:18:47;-4.30;64.30
67557;DHT22;54387;53.526;49.300;2023-11-19T05:21:13;-4.20;64.40
67557;DHT22;54387;53.526;49.300;2023-11-19T05:23:40;-4.20;64.40
67557;DHT22;54387;53.526;49.300;2023-11-19T05:26:08;-4.20;64.40
67557;DHT22;54387;53.526;49.300;2023-11-19T05:28:35;-4.20;64.50
67557;DHT22;54387;53.526;49.300;2023-11-19T05:31:01;-4.20;64.50
67557;DHT22;54387;53.526;49.300;2023-11-19T05:33:27;-4.20;65.10
67557;DHT22;54387;53.526;49.300;2023-11-19T05:35:54;-4.20;64.40
67557;DHT22;54387;53.526;49.300;2023-11-19T05:38:21;-4.20;64.30
67557;DHT22;54387;53.526;49.300;2023-11-19T05:40:47;-4.20;64.30
67557;DHT22;54387;53.526;49.300;2023-11-19T05:43:15;-4.20;64.30
67557;DHT22;54387;53.526;49.300;2023-11-19T05:45:43;-4.10;64.30
67557;DHT22;54387;53.526;49.300;2023-11-19T05:48:09;-4.10;64.30
67557;DHT22;54387;53.526;49.300;2023-11-19T05:50:36;-4.00;64.40
67557;DHT22;54387;53.526;49.300;2023-11-19T05:53:02;-4.00;64.30
67557;DHT22;54387;53.526;49.300;2023-11-19T05:55:33;-3.90;64.30
67557;DHT22;54387;53.526;49.300;2023-11-19T05:58:00;-3.90;64.10
67557;DHT22;54387;53.526;49.300;2023-11-19T06:00:26;-3.80;64.10
67557;DHT22;54387;53.526;49.300;2023-11-19T06:02:53;-3.80;63.90
67557;DHT22;54387;53.526;49.300;2023-11-19T06:05:19;-3.80;63.90
67557;DHT22;54387;53.526;49.300;2023-11-19T06:07:45;-3.70;64.00
67557;DHT22;54387;53.526;49.300;2023-11-19T06:10:12;-3.70;63.90
67557;DHT22;54387;53.526;49.300;2023-11-19T06:12:40;-3.60;63.90
67557;DHT22;54387;53.526;49.300;2023-11-19T06:15:07;-3.50;63.90
67557;DHT22;54387;53.526;49.300;2023-11-19T06:17:37;-3.40;63.80
67557;DHT22;54387;53.526;49.300;2023-11-19T06:20:04;-3.40;63.60
67557;DHT22;54387;53.526;49.300;2023-11-19T06:22:31;-3.30;63.40
67557;DHT22;54387;53.526;49.300;2023-11-19T06:24:57;-3.30;63.20
67557;DHT22;54387;53.526;49.300;2023-11-19T06:27:24;-3.20;63.10
67557;DHT22;54387;53.526;49.300;2023-11-19T06:29:50;-3.20;62.90
67557;DHT22;54387;53.526;49.300;2023-11-19T06:32:16;-3.20;62.80
67557;DHT22;54387;53.526;49.300;2023-11-19T06:34:43;-3.10;62.80
67557;DHT22;54387;53.526;49.300;2023-11-19T06:37:09;-3.10;62.60
67557;DHT22;54387;53.526;49.300;2023-11-19T06:39:35;-3.00;62.30
67557;DHT22;54387;53.526;49.300;2023-11-19T06:42:01;-3.10;62.00
67557;DHT22;54387;53.526;49.300;2023-11-19T06:44:28;-3.00;62.20
67557;DHT22;54387;53.526;49.300;2023-11-19T06:46:54;-2.90;62.20
67557;DHT22;54387;53.526;49.300;2023-11-19T06:49:21;-2.80;62.00
67557;DHT22;54387;53.526;49.300;2023-11-19T06:51:47;-2.70;61.80
67557;DHT22;54387;53.526;49.300;2023-11-19T06:54:14;-2.60;61.20
67557;DHT22;54387;53.526;49.300;2023-11-19T06:56:40;-2.40;61.30
67557;DHT22;54387;53.526;49.300;2023-11-19T06:59:08;-2.30;60.80
67557;DHT22;54387;53.526;49.300;2023-11-19T07:01:36;-2.20;60.50
67557;DHT22;54387;53.526;49.300;2023-11-19T07:04:03;-2.10;60.60
67557;DHT22;54387;53.526;49.300;2023-11-19T07:06:35;-1.90;60.70
67557;DHT22;54387;53.526;49.300;2023-11-19T07:09:03;-1.70;60.60
67557;DHT22;54387;53.526;49.300;2023-11-19T07:11:40;-1.50;60.00
67557;DHT22;54387;53.526;49.300;2023-11-19T07:14:08;-1.40;59.60
67557;DHT22;54387;53.526;49.300;2023-11-19T07:16:35;-1.30;59.50
67557;DHT22;54387;53.526;49.300;2023-11-19T07:19:05;-1.10;59.50
67557;DHT22;54387;53.526;49.300;2023-11-19T07:21:32;-1.00;58.60
67557;DHT22;54387;53.526;49.300;2023-11-19T07:24:00;-1.00;58.20
67557;DHT22;54387;53.526;49.300;2023-11-19T07:26:26;-0.90;58.00
67557;DHT22;54387;53.526;49.300;2023-11-19T07:28:53;-0.90;57.00
67557;DHT22;54387;53.526;49.300;2023-11-19T07:31:19;-1.00;56.80
67557;DHT22;54387;53.526;49.300;2023-11-19T07:33:46;-1.00;57.40
67557;DHT22;54387;53.526;49.300;2023-11-19T07:36:14;-0.90;56.90
67557;DHT22;54387;53.526;49.300;2023-11-19T07:38:40;-0.90;56.80
67557;DHT22;54387;53.526;49.300;2023-11-19T07:41:07;-0.90;57.00
67557;DHT22;54387;53.526;49.300;2023-11-19T07:43:36;-0.90;57.10
67557;DHT22;54387;53.526;49.300;2023-11-19T07:46:02;-0.90;56.50
67557;DHT22;54387;53.526;49.300;2023-11-19T07:48:30;-0.80;56.50
67557;DHT22;54387;53.526;49.300;2023-11-19T07:50:57;-0.90;55.90
67557;DHT22;54387;53.526;49.300;2023-11-19T07:53:23;-1.00;56.00
67557;DHT22;54387;53.526;49.300;2023-11-19T07:55:50;-1.00;56.40
67557;DHT22;54387;53.526;49.300;2023-11-19T07:58:16;-0.90;56.50
67557;DHT22;54387;53.526;49.300;2023-11-19T08:00:42;-0.80;56.60
67557;DHT22;54387;53.526;49.300;2023-11-19T08:03:09;-0.70;55.80
67557;DHT22;54387;53.526;49.300;2023-11-19T08:05:36;-0.70;55.80
67557;DHT22;54387;53.526;49.300;2023-11-19T08:08:02;-0.60;55.30
67557;DHT22;54387;53.526;49.300;2023-11-19T08:10:28;-0.60;54.80
67557;DHT22;54387;53.526;49.300;2023-11-19T08:12:55;-0.70;54.60
67557;DHT22;54387;53.526;49.300;2023-11-19T08:15:21;-0.70;55.10
67557;DHT22;54387;53.526;49.300;2023-11-19T08:17:48;-0.50;55.40
67557;DHT22;54387;53.526;49.300;2023-11-19T08:20:14;-0.40;55.00
67557;DHT22;54387;53.526;49.300;2023-11-19T08:22:40;-0.40;54.30
67557;DHT22;54387;53.526;49.300;2023-11-19T08:25:07;-0.50;53.70
67557;DHT22;54387;53.526;49.300;2023-11-19T08:27:34;-0.70;53.70
67557;DHT22;54387;53.526;49.300;2023-11-19T08:30:00;-0.70;54.20
67557;DHT22;54387;53.526;49.300;2023-11-19T08:32:27;-0.80;54.30
67557;DHT22;54387;53.526;49.300;2023-11-19T08:34:54;-0.90;54.50
67557;DHT22;54387;53.526;49.300;2023-11-19T08:37:20;-0.90;54.70
67557;DHT22;54387;53.526;49.300;2023-11-19T08:39:48;-0.90;55.10
67557;DHT22;54387;53.526;49.300;2023-11-19T08:42:15;-0.80;55.00
67557;DHT22;54387;53.526;49.300;2023-11-19T08:44:42;-0.80;54.70
67557;DHT22;54387;53.526;49.300;2023-11-19T08:47:13;-0.80;54.80
67557;DHT22;54387;53.526;49.300;2023-11-19T08:49:42;-0.80;54.40
67557;DHT22;54387;53.526;49.300;2023-11-19T08:52:08;-0.70;54.30
67557;DHT22;54387;53.526;49.300;2023-11-19T08:54:35;-0.80;54.10
67557;DHT22;54387;53.526;49.300;2023-11-19T08:57:03;-0.80;54.00
67557;DHT22;54387;53.526;49.300;2023-11-19T08:59:30;-0.80;53.80
67557;DHT22;54387;53.526;49.300;2023-11-19T09:01:56;-0.80;53.80
67557;DHT22;54387;53.526;49.300;2023-11-19T09:04:23;-0.80;54.20
67557;DHT22;54387;53.526;49.300;2023-11-19T09:06:49;-0.80;54.50
67557;DHT22;54387;53.526;49.300;2023-11-19T09:09:16;-0.70;54.10
67557;DHT22;54387;53.526;49.300;2023-11-19T09:11:43;-0.70;54.10
67557;DHT22;54387;53.526;49.300;2023-11-19T09:14:09;-0.70;53.90
67557;DHT22;54387;53.526;49.300;2023-11-19T09:16:36;-0.70;53.80
67557;DHT22;54387;53.526;49.300;2023-11-19T09:19:02;-0.70;53.80
67557;DHT22;54387;53.526;49.300;2023-11-19T09:21:28;-0.80;53.80
67557;DHT22;54387;53.526;49.300;2023-11-19T09:23:58;-0.80;54.00
67557;DHT22;54387;53.526;49.300;2023-11-19T09:26:24;-0.70;54.20
67557;DHT22;54387;53.526;49.300;2023-11-19T09:28:51;-0.60;54.30
67557;DHT22;54387;53.526;49.300;2023-11-19T09:31:18;-0.50;53.90
67557;DHT22;54387;53.526;49.300;2023-11-19T09:33:45;-0.50;53.90
67557;DHT22;54387;53.526;49.300;2023-11-19T09:36:15;-0.40;53.80
67557;DHT22;54387;53.526;49.300;2023-11-19T09:38:43;-0.40;53.60
67557;DHT22;54387;53.526;49.300;2023-11-19T09:41:10;-0.40;54.40
67557;DHT22;54387;53.526;49.300;2023-11-19T09:43:39;-0.40;53.30
67557;DHT22;54387;53.526;49.300;2023-11-19T09:46:08;-0.50;53.30
67557;DHT22;54387;53.526;49.300;2023-11-19T09:48:38;-0.60;53.50
67557;DHT22;54387;53.526;49.300;2023-11-19T09:51:07;-0.60;53.70
67557;DHT22;54387;53.526;49.300;2023-11-19T09:53:36;-0.70;53.60
67557;DHT22;54387;53.526;49.300;2023-11-19T09:56:04;-0.80;53.60
67557;DHT22;54387;53.526;49.300;2023-11-19T09:58:32;-0.80;54.00
67557;DHT22;54387;53.526;49.300;2023-11-19T10:00:59;-0.80;54.20
67557;DHT22;54387;53.526;49.300;2023-11-19T10:03:33;-0.70;54.10
67557;DHT22;54387;53.526;49.300;2023-11-19T10:06:01;-0.70;54.10
67557;DHT22;54387;53.526;49.300;2023-11-19T10:08:28;-0.60;54.20
67557;DHT22;54387;53.526;49.300;2023-11-19T10:10:55;-0.60;54.20
67557;DHT22;54387;53.526;49.300;2023-11-19T10:13:31;-0.50;53.90
67557;DHT22;54387;53.526;49.300;2023-11-19T10:15:57;-0.60;53.60
67557;DHT22;54387;53.526;49.300;2023-11-19T10:18:27;-0.70;53.50
67557;DHT22;54387;53.526;49.300;2023-11-19T10:20:53;-0.70;53.60
67557;DHT22;54387;53.526;49.300;2023-11-19T10:23:21;-0.80;53.40
67557;DHT22;54387;53.526;49.300;2023-11-19T10:25:47;-0.90;53.70
67557;DHT22;54387;53.526;49.300;2023-11-19T10:28:18;-0.90;54.00
67557;DHT22;54387;53.526;49.300;2023-11-19T10:30:48;-0.90;54.30
67557;DHT22;54387;53.526;49.300;2023-11-19T10:33:16;-1.00;54.00
67557;DHT22;54387;53.526;49.300;2023-11-19T10:35:57;-1.00;54.20
67557;DHT22;54387;53.526;49.300;2023-11-19T10:38:25;-0.90;54.20
67557;DHT22;54387;53.526;49.300;2023-11-19T10:40:52;-0.80;54.00
67557;DHT22;54387;53.526;49.300;2023-11-19T10:43:20;-0.90;53.80
67557;DHT22;54387;53.526;49.300;2023-11-19T10:45:48;-0.90;54.00
67557;DHT22;54387;53.526;49.300;2023-11-19T10:48:15;-0.90;53.90
67557;DHT22;54387;53.526;49.300;2023-11-19T10:50:43;-0.90;53.70
67557;DHT22;54387;53.526;49.300;2023-11-19T10:53:12;-1.00;53.90
67557;DHT22;54387;53.526;49.300;2023-11-19T10:55:47;-1.00;53.80
67557;DHT22;54387;53.526;49.300;2023-11-19T10:58:16;-1.00;53.90
67557;DHT22;54387;53.526;49.300;2023-11-19T11:00:47;-1.00;53.80
67557;DHT22;54387;53.526;49.300;2023-11-19T11:03:21;-1.10;53.70
67557;DHT22;54387;53.526;49.300;2023-11-19T11:05:56;-1.20;53.60
67557;DHT22;54387;53.526;49.300;2023-11-19T11:08:24;-1.30;53.60
67557;DHT22;54387;53.526;49.300;2023-11-19T11:10:54;-1.30;53.90
67557;DHT22;54387;53.526;49.300;2023-11-19T11:13:25;-1.30;53.80
67557;DHT22;54387;53.526;49.300;2023-11-19T11:15:55;-1.30;53.90
67557;DHT22;54387;53.526;49.300;2023-11-19T11:18:26;-1.40;54.10
67557;DHT22;54387;53.526;49.300;2023-11-19T11:23:50;-1.60;54.40
67557;DHT22;54387;53.526;49.300;2023-11-19T11:29:24;-1.50;54.70
67557;DHT22;54387;53.526;49.300;2023-11-19T11:34:58;-1.60;54.80
67557;DHT22;54387;53.526;49.300;2023-11-19T11:37:47;-1.80;55.20
67557;DHT22;54387;53.526;49.300;2023-11-19T11:40:17;-1.90;55.60
67557;DHT22;54387;53.526;49.300;2023-11-19T11:42:44;-2.00;55.70
67557;DHT22;54387;53.526;49.300;2023-11-19T11:45:12;-2.10;55.70
67557;DHT22;54387;53.526;49.300;2023-11-19T11:50:26;-2.10;56.20
67557;DHT22;54387;53.526;49.300;2023-11-19T11:53:13;-2.00;56.20
67557;DHT22;54387;53.526;49.300;2023-11-19T11:58:18;-1.90;56.00
67557;DHT22;54387;53.526;49.300;2023-11-19T12:00:47;-2.00;55.90
67557;DHT22;54387;53.526;49.300;2023-11-19T12:03:14;-2.00;56.00
67557;DHT22;54387;53.526;49.300;2023-11-19T12:05:47;-1.90;56.00
67557;DHT22;54387;53.526;49.300;2023-11-19T12:08:16;-1.90;55.90
67557;DHT22;54387;53.526;49.300;2023-11-19T12:10:50;-1.90;55.90
67557;DHT22;54387;53.526;49.300;2023-11-19T12:13:21;-1.90;55.90
67557;DHT22;54387;53.526;49.300;2023-11-19T12:18:30;-1.90;56.00
67557;DHT22;54387;53.526;49.300;2023-11-19T12:21:00;-2.00;55.90
67557;DHT22;54387;53.526;49.300;2023-11-19T12:23:29;-2.00;55.90
67557;DHT22;54387;53.526;49.300;2023-11-19T12:25:56;-2.00;56.10
67557;DHT22;54387;53.526;49.300;2023-11-19T12:28:23;-1.90;56.00
67557;DHT22;54387;53.526;49.300;2023-11-19T12:30:52;-1.90;55.90
67557;DHT22;54387;53.526;49.300;2023-11-19T12:33:22;-2.00;55.70
67557;DHT22;54387;53.526;49.300;2023-11-19T12:35:48;-2.10;55.70
67557;DHT22;54387;53.526;49.300;2023-11-19T12:38:23;-2.20;55.90
67557;DHT22;54387;53.526;49.300;2023-11-19T12:41:08;-2.20;56.00
67557;DHT22;54387;53.526;49.300;2023-11-19T12:43:37;-2.30;56.20
67557;DHT22;54387;53.526;49.300;2023-11-19T12:46:20;-2.40;56.30
67557;DHT22;54387;53.526;49.300;2023-11-19T12:48:48;-2.40;56.30
67557;DHT22;54387;53.526;49.300;2023-11-19T12:51:15;-2.50;56.50
67557;DHT22;54387;53.526;49.300;2023-11-19T12:53:52;-2.60;56.80
67557;DHT22;54387;53.526;49.300;2023-11-19T12:56:24;-2.70;57.10
67557;DHT22;54387;53.526;49.300;2023-11-19T12:58:51;-2.70;57.30
67557;DHT22;54387;53.526;49.300;2023-11-19T13:01:18;-2.70;57.40
67557;DHT22;54387;53.526;49.300;2023-11-19T13:03:47;-2.70;57.60
67557;DHT22;54387;53.526;49.300;2023-11-19T13:06:15;-2.70;57.50
67557;DHT22;54387;53.526;49.300;2023-11-19T13:08:42;-2.60;57.70
67557;DHT22;54387;53.526;49.300;2023-11-19T13:11:13;-2.60;57.80
67557;DHT22;54387;53.526;49.300;2023-11-19T13:16:23;-2.30;57.60
67557;DHT22;54387;53.526;49.300;2023-11-19T13:18:49;-2.30;57.30
67557;DHT22;54387;53.526;49.300;2023-11-19T13:21:16;-2.30;57.10
67557;DHT22;54387;53.526;49.300;2023-11-19T13:23:42;-2.30;57.00
67557;DHT22;54387;53.526;49.300;2023-11-19T13:26:10;-2.30;56.80
67557;DHT22;54387;53.526;49.300;2023-11-19T13:28:37;-2.40;56.80
67557;DHT22;54387;53.526;49.300;2023-11-19T13:31:04;-2.40;56.80
67557;DHT22;54387;53.526;49.300;2023-11-19T13:33:31;-2.50;56.70
67557;DHT22;54387;53.526;49.300;2023-11-19T13:35:58;-2.60;56.70
67557;DHT22;54387;53.526;49.300;2023-11-19T13:38:25;-2.70;56.60
67557;DHT22;54387;53.526;49.300;2023-11-19T13:40:52;-2.80;56.60
67557;DHT22;54387;53.526;49.300;2023-11-19T13:43:19;-3.00;56.70
67557;DHT22;54387;53.526;49.300;2023-11-19T13:45:45;-3.10;56.80
67557;DHT22;54387;53.526;49.300;2023-11-19T13:48:12;-3.30;57.00
67557;DHT22;54387;53.526;49.300;2023-11-19T13:50:38;-3.30;57.20
67557;DHT22;54387;53.526;49.300;2023-11-19T13:53:04;-3.50;57.30
67557;DHT22;54387;53.526;49.300;2023-11-19T13:55:31;-3.60;57.40
67557;DHT22;54387;53.526;49.300;2023-11-19T13:57:57;-3.70;57.40
67557;DHT22;54387;53.526;49.300;2023-11-19T14:00:24;-3.70;57.60
67557;DHT22;54387;53.526;49.300;2023-11-19T14:02:50;-3.80;57.70
67557;DHT22;54387;53.526;49.300;2023-11-19T14:05:18;-3.90;57.90
67557;DHT22;54387;53.526;49.300;2023-11-19T14:07:44;-4.00;58.00
67557;DHT22;54387;53.526;49.300;2023-11-19T14:10:14;-4.00;58.20
67557;DHT22;54387;53.526;49.300;2023-11-19T14:12:41;-4.10;58.30
67557;DHT22;54387;53.526;49.300;2023-11-19T14:15:09;-4.10;58.40
67557;DHT22;54387;53.526;49.300;2023-11-19T14:17:36;-4.20;58.50
67557;DHT22;54387;53.526;49.300;2023-11-19T14:20:02;-4.20;58.60
67557;DHT22;54387;53.526;49.300;2023-11-19T14:22:42;-4.20;58.80
67557;DHT22;54387;53.526;49.300;2023-11-19T14:25:09;-4.30;58.90
67557;DHT22;54387;53.526;49.300;2023-11-19T14:27:41;-4.30;59.10
67557;DHT22;54387;53.526;49.300;2023-11-19T14:30:09;-4.30;59.10
67557;DHT22;54387;53.526;49.300;2023-11-19T14:32:40;-4.30;59.20
67557;DHT22;54387;53.526;49.300;2023-11-19T14:35:08;-4.40;59.30
67557;DHT22;54387;53.526;49.300;2023-11-19T14:37:34;-4.40;59.50
67557;DHT22;54387;53.526;49.300;2023-11-19T14:40:01;-4.40;59.70
67557;DHT22;54387;53.526;49.300;2023-11-19T14:42:30;-4.40;59.80
67557;DHT22;54387;53.526;49.300;2023-11-19T14:44:56;-4.40;59.90
67557;DHT22;54387;53.526;49.300;2023-11-19T14:47:22;-4.40;59.90
67557;DHT22;54387;53.526;49.300;2023-11-19T14:49:49;-4.40;60.00
67557;DHT22;54387;53.526;49.300;2023-11-19T14:52:15;-4.40;60.10
67557;DHT22;54387;53.526;49.300;2023-11-19T14:54:44;-4.40;60.20
67557;DHT22;54387;53.526;49.300;2023-11-19T14:57:10;-4.40;60.20
67557;DHT22;54387;53.526;49.300;2023-11-19T14:59:37;-4.50;60.20
67557;DHT22;54387;53.526;49.300;2023-11-19T15:02:03;-4.50;60.20
67557;DHT22;54387;53.526;49.300;2023-11-19T15:04:31;-4.50;60.30
67557;DHT22;54387;53.526;49.300;2023-11-19T15:06:58;-4.50;60.40
67557;DHT22;54387;53.526;49.300;2023-11-19T15:09:24;-4.50;60.50
67557;DHT22;54387;53.526;49.300;2023-11-19T15:11:53;-4.60;60.50
67557;DHT22;54387;53.526;49.300;2023-11-19T15:14:19;-4.60;60.50
67557;DHT22;54387;53.526;49.300;2023-11-19T15:16:46;-4.60;60.60
67557;DHT22;54387;53.526;49.300;2023-11-19T15:19:13;-4.60;60.60
67557;DHT22;54387;53.526;49.300;2023-11-19T15:21:43;-4.60;60.70
67557;DHT22;54387;53.526;49.300;2023-11-19T15:24:10;-4.60;60.70
67557;DHT22;54387;53.526;49.300;2023-11-19T15:26:37;-4.70;60.70
67557;DHT22;54387;53.526;49.300;2023-11-19T15:29:04;-4.70;60.70
67557;DHT22;54387;53.526;49.300;2023-11-19T15:31:30;-4.70;60.80
67557;DHT22;54387;53.526;49.300;2023-11-19T15:33:57;-4.80;60.90
67557;DHT22;54387;53.526;49.300;2023-11-19T15:36:23;-4.80;60.90
67557;DHT22;54387;53.526;49.300;2023-11-19T15:38:50;-4.80;61.00